Time;durP1;ratioP1;P1;durP2;ratioP2;P2;SDS_P1;SDS_P2;PMS_P1;PMS_P2;Temp;Humidity;BMP_temperature;BMP_pressure;BME280_temperature;BME280_humidity;BME280_pressure;Samples;Min_cycle;Max_cycle;Signal;HPM_P1;HPM_P2
2022/04/25 00:02:26;;;;;;;9.83;9.00;;;13.70;95.00;;;;;;5061966;28;20464;-81
2022/04/25 00:04:53;;;;;;;9.70;8.80;;;13.70;95.80;;;;;;5060230;28;20451;-81
2022/04/25 00:07:20;;;;;;;9.60;8.80;;;13.70;96.30;;;;;;5062777;28;20434;-81
2022/04/25 00:09:47;;;;;;;8.83;8.13;;;13.80;96.60;;;;;;5062339;28;20988;-80
2022/04/25 00:12:13;;;;;;;9.90;9.03;;;13.90;96.60;;;;;;5063991;28;20471;-79
2022/04/25 00:14:40;;;;;;;8.73;8.00;;;13.90;96.50;;;;;;5061621;28;20468;-79
2022/04/25 00:17:07;;;;;;;9.60;8.80;;;13.80;96.70;;;;;;5062221;28;21498;-80
2022/04/25 00:19:35;;;;;;;9.13;8.43;;;13.90;96.70;;;;;;5062999;28;20471;-79
2022/04/25 00:22:03;;;;;;;9.17;8.43;;;13.90;95.90;;;;;;5066246;28;20452;-81
2022/04/25 00:24:30;;;;;;;9.53;8.73;;;14.20;94.80;;;;;;5059460;28;20459;-80
2022/04/25 00:26:58;;;;;;;8.90;8.10;;;14.30;92.90;;;;;;5061857;28;20455;-80
2022/04/25 00:29:24;;;;;;;8.60;7.90;;;14.30;93.10;;;;;;5061140;28;20440;-79
2022/04/25 00:31:51;;;;;;;10.83;10.03;;;14.30;93.00;;;;;;5060451;28;20432;-79
2022/04/25 00:34:18;;;;;;;11.90;11.00;;;14.20;93.10;;;;;;5060816;28;20453;-79
2022/04/25 00:36:45;;;;;;;15.97;14.43;;;13.90;93.00;;;;;;5047221;28;20428;-80
2022/04/25 00:39:12;;;;;;;16.53;15.03;;;13.70;94.10;;;;;;5053835;28;20526;-81
2022/04/25 00:41:39;;;;;;;17.37;15.83;;;13.60;95.80;;;;;;5034030;28;21015;-82
2022/04/25 00:44:06;;;;;;;15.23;13.80;;;13.70;96.40;;;;;;5036931;28;20538;-80
2022/04/25 00:46:35;;;;;;;13.17;12.13;;;13.70;96.50;;;;;;5053623;28;20476;-80
2022/04/25 00:49:02;;;;;;;14.50;13.20;;;13.60;96.80;;;;;;5050731;28;20460;-80
2022/04/25 00:51:28;;;;;;;13.63;12.03;;;13.40;96.90;;;;;;5057605;28;20483;-80
2022/04/25 00:53:55;;;;;;;13.60;12.40;;;13.30;97.60;;;;;;5037034;28;20552;-79
2022/04/25 00:56:24;;;;;;;12.13;11.00;;;13.20;97.60;;;;;;5054712;28;20456;-82
2022/04/25 00:58:51;;;;;;;12.77;11.77;;;13.20;98.30;;;;;;5054659;28;20452;-81
2022/04/25 01:01:18;;;;;;;13.30;12.20;;;13.10;98.00;;;;;;5040125;28;20476;-81
2022/04/25 01:03:45;;;;;;;13.87;12.73;;;13.10;98.40;;;;;;5033440;28;20452;-81
2022/04/25 01:06:12;;;;;;;12.23;11.23;;;12.90;98.50;;;;;;5050221;28;20528;-81
2022/04/25 01:08:39;;;;;;;11.13;10.13;;;12.80;99.40;;;;;;5054200;28;21114;-82
2022/04/25 01:11:06;;;;;;;9.23;8.53;;;12.60;99.80;;;;;;5037525;28;20484;-79
2022/04/25 01:13:33;;;;;;;7.90;7.20;;;12.50;99.90;;;;;;5056624;28;20463;-80
2022/04/25 01:16:00;;;;;;;8.27;7.57;;;12.40;99.90;;;;;;5050675;28;20460;-80
2022/04/25 01:18:26;;;;;;;7.60;6.90;;;12.30;99.90;;;;;;5035095;28;20440;-81
2022/04/25 01:20:57;;;;;;;6.20;5.67;;;12.20;99.90;;;;;;5055238;28;20475;-81
2022/04/25 01:28:58;;;;;;;6.80;6.30;;;12.20;99.90;;;;;;5057709;28;20440;-80
2022/04/25 01:31:25;;;;;;;6.60;6.10;;;12.10;99.90;;;;;;5055272;28;20476;-80
2022/04/25 01:33:51;;;;;;;7.63;5.67;;;12.10;99.90;;;;;;5051363;28;20487;-81
2022/04/25 01:36:22;;;;;;;7.33;6.20;;;12.20;99.90;;;;;;5055884;28;21828;-79
2022/04/25 01:38:53;;;;;;;7.27;6.57;;;12.40;99.90;;;;;;5050756;28;20449;-81
2022/04/25 01:41:22;;;;;;;7.20;6.60;;;12.30;99.20;;;;;;5050827;28;20529;-80
2022/04/25 01:43:48;;;;;;;6.73;6.10;;;12.30;99.90;;;;;;5050867;28;20463;-81
2022/04/25 01:46:15;;;;;;;6.67;6.07;;;12.20;99.90;;;;;;5053061;28;20436;-81
2022/04/25 01:48:42;;;;;;;6.33;5.10;;;12.10;99.90;;;;;;5053481;28;20462;-80
2022/04/25 01:51:10;;;;;;;5.53;5.03;;;11.90;99.90;;;;;;5049153;28;20468;-81
2022/04/25 01:53:37;;;;;;;7.10;4.77;;;11.80;99.90;;;;;;5051560;28;20491;-80
2022/04/25 01:56:04;;;;;;;4.50;4.10;;;11.70;99.90;;;;;;5052754;28;20465;-81
2022/04/25 01:58:31;;;;;;;4.50;4.20;;;11.60;99.90;;;;;;5051862;28;20463;-82
2022/04/25 02:00:57;;;;;;;4.50;4.10;;;11.70;99.90;;;;;;5047027;28;20472;-80
2022/04/25 02:03:24;;;;;;;4.57;3.70;;;11.70;99.90;;;;;;5059997;28;20481;-80
2022/04/25 02:05:52;;;;;;;5.23;4.60;;;11.60;99.90;;;;;;5059578;28;20460;-80
2022/04/25 02:08:19;;;;;;;5.27;4.77;;;11.50;99.90;;;;;;5067467;28;20463;-80
2022/04/25 02:11:19;;;;;;;5.10;4.70;;;11.30;99.90;;;;;;5065608;28;20476;-80
2022/04/25 02:13:32;;;;;;;4.70;4.40;;;11.30;99.90;;;;;;5060531;28;20466;-80
2022/04/25 02:15:59;;;;;;;4.33;3.93;;;11.40;99.90;;;;;;5053386;28;20453;-81
2022/04/25 02:18:26;;;;;;;4.80;4.40;;;11.50;99.90;;;;;;5069313;28;21015;-80
2022/04/25 02:20:52;;;;;;;4.83;4.33;;;11.40;99.90;;;;;;5047996;28;20818;-80
2022/04/25 02:23:19;;;;;;;6.33;4.60;;;11.40;99.90;;;;;;5060739;28;20461;-80
2022/04/25 02:25:46;;;;;;;5.30;4.80;;;11.30;99.90;;;;;;5055035;28;20456;-79
2022/04/25 02:28:12;;;;;;;5.07;4.60;;;11.20;99.90;;;;;;5054001;28;20542;-81
2022/04/25 02:30:39;;;;;;;4.93;4.50;;;11.40;99.90;;;;;;5025298;28;20473;-81
2022/04/25 02:33:06;;;;;;;4.77;4.37;;;11.50;99.90;;;;;;5058182;28;20491;-81
2022/04/25 02:35:32;;;;;;;5.57;5.00;;;11.50;99.90;;;;;;5050271;28;21397;-81
2022/04/25 02:37:59;;;;;;;5.30;4.80;;;11.60;99.90;;;;;;5035627;28;20449;-80
2022/04/25 02:40:26;;;;;;;4.07;3.73;;;11.70;99.90;;;;;;5051075;28;20487;-81
2022/04/25 02:42:52;;;;;;;4.23;3.80;;;11.80;99.90;;;;;;5044828;28;20458;-80
2022/04/25 02:45:19;;;;;;;3.70;3.50;;;11.80;99.90;;;;;;5044201;28;21373;-80
2022/04/25 02:47:46;;;;;;;4.70;3.50;;;11.70;99.90;;;;;;5025170;28;20458;-79
2022/04/25 02:50:12;;;;;;;4.20;3.80;;;11.70;99.90;;;;;;5061976;28;20460;-81
2022/04/25 02:52:39;;;;;;;4.50;4.20;;;11.70;99.90;;;;;;5056546;28;20538;-81
2022/04/25 02:55:06;;;;;;;3.60;3.30;;;11.70;99.90;;;;;;5049883;28;20452;-82
2022/04/25 02:57:33;;;;;;;3.77;3.47;;;11.70;99.90;;;;;;5047000;28;20462;-81
2022/04/25 03:00:00;;;;;;;2.77;2.57;;;11.60;99.80;;;;;;5042784;28;20487;-79
2022/04/25 03:02:27;;;;;;;3.43;3.13;;;11.70;99.10;;;;;;5054268;28;20473;-80
2022/04/25 03:04:54;;;;;;;3.60;3.30;;;11.70;98.60;;;;;;5051463;28;20451;-81
2022/04/25 03:07:21;;;;;;;3.70;3.33;;;11.60;99.00;;;;;;5015395;28;20467;-81
2022/04/25 03:09:48;;;;;;;3.20;3.00;;;11.60;99.30;;;;;;5050471;28;20831;-80
2022/04/25 03:12:15;;;;;;;3.60;3.30;;;11.60;99.60;;;;;;5054971;28;20467;-79
2022/04/25 03:14:42;;;;;;;3.83;3.50;;;11.70;99.60;;;;;;5044731;28;20569;-79
2022/04/25 03:17:09;;;;;;;2.90;2.70;;;11.70;98.80;;;;;;5030444;28;20459;-80
2022/04/25 03:19:35;;;;;;;3.90;3.40;;;11.50;99.50;;;;;;5026613;28;20476;-80
2022/04/25 03:22:02;;;;;;;4.50;4.20;;;11.40;99.90;;;;;;5046583;28;21474;-80
2022/04/25 03:24:32;;;;;;;4.17;3.77;;;11.40;99.90;;;;;;5044807;28;20951;-80
2022/04/25 03:26:59;;;;;;;3.80;3.50;;;11.60;99.90;;;;;;5030501;28;20460;-80
2022/04/25 03:29:26;;;;;;;3.63;3.40;;;11.40;99.90;;;;;;5049808;28;20496;-81
2022/04/25 03:31:52;;;;;;;4.17;3.77;;;11.30;99.90;;;;;;5055514;28;20466;-81
2022/04/25 03:34:19;;;;;;;3.87;3.57;;;11.40;99.90;;;;;;5053978;28;20488;-80
2022/04/25 03:36:51;;;;;;;4.83;4.43;;;11.30;99.90;;;;;;5053737;28;20452;-79
2022/04/25 03:39:18;;;;;;;4.00;3.70;;;11.40;99.90;;;;;;5054478;28;20459;-80
2022/04/25 03:41:44;;;;;;;4.80;4.40;;;11.40;99.90;;;;;;5057036;28;20448;-80
2022/04/25 03:44:11;;;;;;;5.27;4.73;;;11.40;99.90;;;;;;5038767;28;20456;-81
2022/04/25 03:46:38;;;;;;;4.93;4.50;;;11.40;99.90;;;;;;5058878;28;20467;-81
2022/04/25 03:49:04;;;;;;;5.10;4.07;;;11.50;99.90;;;;;;5063259;28;20448;-80
2022/04/25 03:51:31;;;;;;;4.60;4.30;;;11.50;99.90;;;;;;5034543;28;20479;-81
2022/04/25 03:53:58;;;;;;;5.00;4.50;;;11.80;99.90;;;;;;5054922;28;20476;-81
2022/04/25 03:59:10;;;;;;;6.13;5.63;;;12.00;99.70;;;;;;5047055;28;21056;-79
2022/04/25 04:01:36;;;;;;;6.10;5.60;;;11.90;99.50;;;;;;5010748;28;20448;-81
2022/04/25 04:04:05;;;;;;;7.07;6.50;;;11.80;99.50;;;;;;5056372;28;20460;-81
2022/04/25 04:06:36;;;;;;;6.90;6.20;;;11.60;99.90;;;;;;5036879;28;20459;-81
2022/04/25 04:09:44;;;;;;;8.47;7.70;;;11.70;99.90;;;;;;5034661;28;20460;-80
2022/04/25 04:11:50;;;;;;;8.73;7.83;;;12.00;99.90;;;;;;5048627;28;20463;-80
2022/04/25 04:14:19;;;;;;;8.20;7.40;;;12.00;99.90;;;;;;5050474;28;20509;-81
2022/04/25 04:16:45;;;;;;;8.10;7.30;;;11.80;99.90;;;;;;5050901;28;20905;-80
2022/04/25 04:19:12;;;;;;;8.40;7.70;;;11.80;99.90;;;;;;5046562;28;20465;-81
2022/04/25 04:21:38;;;;;;;7.40;6.70;;;11.70;99.90;;;;;;5033664;28;20452;-81
2022/04/25 04:24:05;;;;;;;7.10;6.40;;;11.80;99.90;;;;;;5052021;28;21936;-81
2022/04/25 04:26:32;;;;;;;7.23;6.57;;;11.70;99.10;;;;;;5034481;28;20452;-80
2022/04/25 04:28:58;;;;;;;6.80;6.20;;;11.60;99.60;;;;;;5053715;28;20456;-80
2022/04/25 04:31:25;;;;;;;8.03;7.33;;;11.70;99.40;;;;;;5034475;28;20472;-80
2022/04/25 04:33:52;;;;;;;6.90;6.30;;;11.70;99.60;;;;;;5054228;28;20565;-80
2022/04/25 04:36:18;;;;;;;6.87;6.27;;;11.70;99.70;;;;;;5053933;28;20452;-80
2022/04/25 04:38:46;;;;;;;7.70;7.00;;;11.70;99.70;;;;;;5057542;28;20439;-80
2022/04/25 04:41:13;;;;;;;8.20;6.63;;;11.70;99.90;;;;;;5059410;28;20570;-81
2022/04/25 04:43:39;;;;;;;6.83;6.13;;;11.70;99.90;;;;;;5061448;28;20463;-79
2022/04/25 04:46:06;;;;;;;6.73;6.20;;;11.60;99.90;;;;;;5060573;28;20490;-82
2022/04/25 04:48:33;;;;;;;7.57;6.40;;;11.60;99.90;;;;;;5061586;28;20539;-82
2022/04/25 04:51:00;;;;;;;6.73;6.03;;;11.60;99.90;;;;;;5062954;28;20467;-81
2022/04/25 04:53:27;;;;;;;8.10;7.40;;;11.70;99.90;;;;;;5043942;28;20487;-79
2022/04/25 04:55:59;;;;;;;7.37;6.67;;;11.60;99.90;;;;;;5066407;28;20450;-80
2022/04/25 04:58:27;;;;;;;8.93;8.03;;;11.60;99.90;;;;;;5044205;28;20463;-80
2022/04/25 05:00:54;;;;;;;7.23;6.53;;;11.50;99.90;;;;;;5065916;28;20472;-80
2022/04/25 05:03:25;;;;;;;7.10;6.50;;;11.50;99.90;;;;;;5063136;28;20462;-81
2022/04/25 05:05:52;;;;;;;8.30;7.60;;;11.50;99.90;;;;;;5042970;28;20830;-83
2022/04/25 05:08:20;;;;;;;7.43;6.73;;;11.50;99.90;;;;;;5061698;28;20455;-82
2022/04/25 05:10:48;;;;;;;9.93;7.80;;;11.30;99.90;;;;;;5068337;28;20540;-80
2022/04/25 05:13:15;;;;;;;9.30;8.40;;;11.20;99.90;;;;;;5070868;28;20488;-79
2022/04/25 05:15:44;;;;;;;7.83;7.03;;;11.50;99.90;;;;;;5058375;28;20447;-80
2022/04/25 05:18:11;;;;;;;7.37;6.67;;;11.40;99.90;;;;;;5039407;28;20445;-82
2022/04/25 05:20:38;;;;;;;6.70;6.10;;;11.40;99.90;;;;;;5058720;28;20479;-81
2022/04/25 05:23:04;;;;;;;8.23;7.07;;;11.40;99.90;;;;;;5060030;28;20520;-80
2022/04/25 05:25:33;;;;;;;6.87;6.20;;;11.30;99.90;;;;;;5044989;28;20442;-81
2022/04/25 05:28:00;;;;;;;7.70;6.80;;;11.20;99.90;;;;;;5043695;28;20488;-82
2022/04/25 05:30:27;;;;;;;7.33;6.63;;;11.10;99.90;;;;;;5063123;28;20468;-79
2022/04/25 05:32:57;;;;;;;8.10;7.47;;;11.10;99.90;;;;;;5060861;28;20541;-80
2022/04/25 05:35:29;;;;;;;7.43;6.83;;;11.40;99.90;;;;;;5051248;28;20452;-80
2022/04/25 05:37:56;;;;;;;8.40;7.27;;;11.50;99.90;;;;;;5068545;28;20456;-81
2022/04/25 05:40:25;;;;;;;8.63;7.30;;;11.40;99.90;;;;;;5071392;28;20468;-81
2022/04/25 05:42:55;;;;;;;7.00;6.40;;;11.50;99.90;;;;;;5069147;28;20443;-79
2022/04/25 05:45:24;;;;;;;7.73;6.93;;;11.60;99.90;;;;;;5070294;28;20518;-81
2022/04/25 05:47:54;;;;;;;7.83;7.13;;;11.50;99.90;;;;;;5068736;28;20487;-80
2022/04/25 05:53:26;;;;;;;6.80;6.20;;;11.40;99.90;;;;;;4999809;28;20526;-80
2022/04/25 05:55:53;;;;;;;7.67;7.07;;;11.40;99.90;;;;;;5059232;28;20530;-80
2022/04/25 05:58:19;;;;;;;7.40;6.80;;;11.70;99.90;;;;;;5069716;28;20456;-80
2022/04/25 06:00:46;;;;;;;8.00;7.20;;;12.00;99.90;;;;;;5073393;28;20456;-80
2022/04/25 06:03:13;;;;;;;7.90;7.07;;;11.90;99.90;;;;;;5077765;28;20463;-81
2022/04/25 06:05:39;;;;;;;8.77;7.87;;;11.80;99.90;;;;;;5064043;28;20446;-80
2022/04/25 06:08:06;;;;;;;8.37;7.67;;;12.00;99.90;;;;;;5033488;28;20491;-81
2022/04/25 06:10:33;;;;;;;11.93;7.67;;;12.00;99.90;;;;;;5045972;28;20513;-80
2022/04/25 06:13:00;;;;;;;9.00;7.70;;;11.90;99.90;;;;;;5039498;28;20453;-80
2022/04/25 06:15:27;;;;;;;8.30;7.50;;;11.80;99.90;;;;;;5061260;28;20463;-80
2022/04/25 06:17:55;;;;;;;8.70;8.00;;;11.70;99.90;;;;;;5067673;28;20488;-81
2022/04/25 06:20:22;;;;;;;8.33;7.30;;;11.80;99.90;;;;;;5050051;28;20472;-80
2022/04/25 06:22:57;;;;;;;8.90;8.10;;;11.90;99.90;;;;;;5065343;28;20863;-80
2022/04/25 06:25:27;;;;;;;9.67;8.77;;;12.20;99.90;;;;;;5061238;28;20506;-79
2022/04/25 06:27:57;;;;;;;10.80;9.70;;;12.20;99.50;;;;;;5059820;28;20459;-80
2022/04/25 06:30:28;;;;;;;11.97;10.80;;;12.10;99.70;;;;;;5047702;28;20511;-81
2022/04/25 06:32:57;;;;;;;11.77;10.60;;;12.10;99.90;;;;;;5065918;28;20720;-80
2022/04/25 06:35:24;;;;;;;11.27;10.27;;;12.00;99.90;;;;;;5061153;28;20499;-79
2022/04/25 06:37:51;;;;;;;11.20;10.10;;;12.00;99.90;;;;;;5062604;28;20444;-81
2022/04/25 06:40:18;;;;;;;11.13;10.13;;;12.30;99.90;;;;;;5064172;28;20579;-80
2022/04/25 06:42:46;;;;;;;11.30;10.10;;;12.60;99.50;;;;;;5062579;28;20463;-81
2022/04/25 06:45:13;;;;;;;11.50;10.43;;;12.70;98.70;;;;;;5062641;28;20444;-82
2022/04/25 06:47:41;;;;;;;11.67;10.67;;;12.60;98.40;;;;;;5065835;28;20571;-81
2022/04/25 06:50:08;;;;;;;13.07;10.77;;;12.60;98.50;;;;;;5060148;28;20487;-81
2022/04/25 06:52:36;;;;;;;11.13;10.10;;;13.00;98.40;;;;;;5063792;28;20513;-81
2022/04/25 06:55:04;;;;;;;13.37;12.17;;;13.30;96.50;;;;;;5072624;28;20471;-80
2022/04/25 06:57:33;;;;;;;13.17;11.93;;;13.00;96.40;;;;;;5071456;28;20456;-80
2022/04/25 07:00:02;;;;;;;12.07;10.97;;;12.80;97.10;;;;;;5072555;28;20486;-81
2022/04/25 07:02:51;;;;;;;11.80;10.70;;;12.80;97.30;;;;;;5056332;28;20444;-80
2022/04/25 07:05:18;;;;;;;10.23;9.23;;;13.00;97.40;;;;;;5068865;28;20457;-80
2022/04/25 07:07:45;;;;;;;11.03;9.93;;;13.00;98.50;;;;;;5047528;28;20451;-81
2022/04/25 07:10:12;;;;;;;11.53;10.43;;;13.00;98.90;;;;;;5068071;28;20555;-81
2022/04/25 07:12:38;;;;;;;10.63;9.73;;;13.00;99.10;;;;;;5070076;28;20567;-81
2022/04/25 07:15:06;;;;;;;12.53;11.40;;;13.00;99.50;;;;;;5071182;28;20479;-81
2022/04/25 07:17:33;;;;;;;12.47;10.43;;;13.10;99.20;;;;;;5069812;28;20458;-80
2022/04/25 07:19:59;;;;;;;13.10;12.00;;;13.20;99.60;;;;;;5070783;28;20523;-80
2022/04/25 07:30:45;;;;;;;13.30;12.10;;;13.30;99.00;;;;;;5059343;28;20483;-81
2022/04/25 07:33:12;;;;;;;13.30;12.13;;;13.40;98.30;;;;;;5059119;28;20440;-80
2022/04/25 07:35:39;;;;;;;13.10;11.90;;;13.20;98.70;;;;;;5039248;28;20490;-80
2022/04/25 07:38:07;;;;;;;14.37;13.17;;;13.10;99.10;;;;;;5058959;28;20471;-80
2022/04/25 07:40:36;;;;;;;13.33;12.13;;;13.10;98.90;;;;;;5058550;28;20476;-79
2022/04/25 07:43:03;;;;;;;14.20;12.90;;;12.90;98.70;;;;;;5058556;28;20471;-81
2022/04/25 07:45:30;;;;;;;16.03;14.53;;;12.90;99.00;;;;;;5059685;28;20478;-81
2022/04/25 07:47:57;;;;;;;14.40;13.03;;;13.10;98.50;;;;;;5065346;28;20444;-80
2022/04/25 07:50:25;;;;;;;12.97;11.80;;;13.10;98.40;;;;;;5049615;28;20461;-80
2022/04/25 07:52:52;;;;;;;13.53;11.90;;;13.30;98.00;;;;;;5027479;28;20479;-80
2022/04/25 07:55:19;;;;;;;11.87;10.87;;;13.40;97.70;;;;;;5066507;28;20464;-80
2022/04/25 07:57:46;;;;;;;12.73;11.43;;;13.40;97.30;;;;;;5061089;28;20456;-81
2022/04/25 08:00:13;;;;;;;11.60;10.53;;;13.20;97.30;;;;;;5062971;28;20463;-81
2022/04/25 08:02:40;;;;;;;12.00;10.90;;;13.50;97.10;;;;;;5064241;28;20452;-80
2022/04/25 08:05:07;;;;;;;12.20;11.10;;;13.50;96.60;;;;;;5064814;28;20479;-80
2022/04/25 08:07:33;;;;;;;11.77;10.67;;;13.60;96.20;;;;;;5062500;28;20455;-79
2022/04/25 08:10:00;;;;;;;11.33;10.33;;;13.50;96.10;;;;;;5065525;28;20482;-82
2022/04/25 08:18:00;;;;;;;10.00;9.10;;;13.90;94.30;;;;;;5059945;28;20453;-80
2022/04/25 08:20:36;;;;;;;11.47;10.37;;;13.90;94.70;;;;;;5061089;28;20455;-81
2022/04/25 08:23:10;;;;;;;11.13;10.10;;;14.30;94.50;;;;;;5060740;28;20444;-81
2022/04/25 08:25:39;;;;;;;9.87;9.03;;;14.30;93.90;;;;;;5043285;28;20494;-79
2022/04/25 08:28:09;;;;;;;9.57;8.77;;;13.90;94.10;;;;;;5040892;28;20467;-79
2022/04/25 08:30:36;;;;;;;9.47;8.57;;;13.60;95.00;;;;;;5057631;28;20475;-80
2022/04/25 08:33:04;;;;;;;9.73;8.93;;;13.50;95.30;;;;;;5062458;28;20810;-79
2022/04/25 08:35:30;;;;;;;9.30;8.50;;;13.60;95.50;;;;;;5056169;28;20514;-81
2022/04/25 08:37:57;;;;;;;10.10;9.20;;;13.60;95.60;;;;;;5059244;28;20914;-81
2022/04/25 08:40:25;;;;;;;9.20;8.50;;;13.80;94.90;;;;;;5039422;28;20467;-81
2022/04/25 08:42:55;;;;;;;9.80;9.00;;;13.60;94.90;;;;;;5040016;28;20451;-80
2022/04/25 08:45:23;;;;;;;10.23;9.23;;;13.50;95.20;;;;;;5038668;28;20975;-81
2022/04/25 08:47:54;;;;;;;8.87;8.17;;;13.90;94.80;;;;;;5057825;28;20467;-82
2022/04/25 08:50:22;;;;;;;9.10;8.30;;;14.00;93.60;;;;;;5059773;28;20482;-79
2022/04/25 08:52:49;;;;;;;9.77;8.73;;;14.00;93.30;;;;;;5039390;28;20452;-80
2022/04/25 08:55:19;;;;;;;8.57;7.87;;;13.70;93.20;;;;;;5039314;28;20476;-80
2022/04/25 08:57:48;;;;;;;8.63;7.90;;;13.50;93.60;;;;;;5058262;28;20463;-80
2022/04/25 09:00:15;;;;;;;7.63;7.03;;;13.60;93.20;;;;;;5039714;28;20477;-80
2022/04/25 09:02:44;;;;;;;8.13;7.40;;;13.40;93.30;;;;;;5037915;28;20567;-81
2022/04/25 09:05:12;;;;;;;8.57;7.87;;;13.40;93.20;;;;;;5054638;28;20460;-80
2022/04/25 09:07:40;;;;;;;8.20;7.40;;;13.50;93.50;;;;;;5056934;28;21010;-80
2022/04/25 09:10:11;;;;;;;9.07;8.17;;;13.80;93.30;;;;;;5055917;28;20473;-82
2022/04/25 09:12:41;;;;;;;9.17;8.33;;;14.10;92.90;;;;;;5034860;28;20452;-79
2022/04/25 09:15:21;;;;;;;7.30;6.70;;;14.30;91.60;;;;;;5055993;28;21044;-81
2022/04/25 09:17:55;;;;;;;8.07;7.37;;;14.30;91.20;;;;;;5061311;28;20543;-81
2022/04/25 09:20:23;;;;;;;8.67;7.80;;;14.20;91.60;;;;;;5059468;28;20498;-80
2022/04/25 09:22:50;;;;;;;8.50;7.80;;;14.40;91.60;;;;;;5061222;28;20441;-81
2022/04/25 09:25:18;;;;;;;6.93;6.33;;;14.40;91.30;;;;;;5042404;28;20467;-81
2022/04/25 09:28:12;;;;;;;6.40;5.90;;;14.30;91.70;;;;;;5057919;28;20562;-80
2022/04/25 09:30:53;;;;;;;7.70;7.10;;;14.10;91.60;;;;;;5066363;28;20449;-80
2022/04/25 09:33:24;;;;;;;9.83;8.97;;;14.20;92.50;;;;;;5056711;28;20473;-79
2022/04/25 09:35:55;;;;;;;7.47;6.83;;;14.40;92.30;;;;;;5072641;28;20483;-81
2022/04/25 09:38:40;;;;;;;7.13;6.53;;;15.00;91.50;;;;;;5054385;28;20432;-80
2022/04/25 09:41:08;;;;;;;6.80;6.30;;;15.10;90.90;;;;;;5055613;28;20452;-81
2022/04/25 09:43:38;;;;;;;6.90;6.30;;;14.80;91.30;;;;;;5066003;28;20437;-81
2022/04/25 09:46:08;;;;;;;7.37;6.77;;;14.70;91.30;;;;;;5069422;28;20437;-80
2022/04/25 09:48:36;;;;;;;7.10;6.50;;;14.40;91.30;;;;;;5056862;28;20452;-81
2022/04/25 09:51:05;;;;;;;7.13;6.63;;;15.00;92.20;;;;;;5055961;28;20532;-81
2022/04/25 09:53:52;;;;;;;7.23;6.53;;;15.30;90.70;;;;;;5062586;28;20456;-81
2022/04/25 09:56:22;;;;;;;8.33;7.67;;;15.30;90.60;;;;;;5048019;28;20499;-81
2022/04/25 09:59:00;;;;;;;6.77;6.17;;;16.40;89.40;;;;;;5062574;28;20462;-81
2022/04/25 10:01:29;;;;;;;6.70;6.20;;;17.60;83.60;;;;;;5040253;28;20495;-81
2022/04/25 10:03:56;;;;;;;6.60;6.10;;;18.10;79.30;;;;;;5042546;28;20463;-82
2022/04/25 10:06:23;;;;;;;7.07;6.47;;;18.40;79.20;;;;;;5059141;28;20503;-80
2022/04/25 10:08:52;;;;;;;5.80;5.40;;;19.60;74.30;;;;;;5058164;28;20456;-81
2022/04/25 10:11:20;;;;;;;6.37;5.90;;;20.60;69.60;;;;;;5059945;28;20503;-81
2022/04/25 10:13:47;;;;;;;6.00;5.60;;;20.90;65.50;;;;;;5040366;28;20463;-81
2022/04/25 10:16:20;;;;;;;5.50;5.10;;;20.70;66.80;;;;;;5033138;28;20484;-83
2022/04/25 10:18:48;;;;;;;5.80;5.40;;;21.40;63.00;;;;;;5016727;28;20456;-81
2022/04/25 10:21:14;;;;;;;6.07;5.67;;;21.30;60.50;;;;;;5053482;28;20460;-81
2022/04/25 10:23:43;;;;;;;6.00;5.50;;;21.40;59.80;;;;;;5054011;28;20452;-81
2022/04/25 10:26:10;;;;;;;6.30;5.90;;;21.60;58.70;;;;;;5051564;28;20960;-80
2022/04/25 10:28:55;;;;;;;7.27;6.03;;;20.90;58.20;;;;;;5053631;28;20460;-81
2022/04/25 10:31:38;;;;;;;6.03;5.63;;;19.80;59.90;;;;;;5058110;28;20452;-81
2022/04/25 10:34:06;;;;;;;6.10;5.50;;;18.80;64.30;;;;;;5057055;28;20531;-81
2022/04/25 10:36:36;;;;;;;5.60;5.17;;;19.30;65.10;;;;;;5037930;28;20551;-81
2022/04/25 10:39:24;;;;;;;6.10;5.57;;;20.00;63.90;;;;;;5006105;28;20448;-81
2022/04/25 10:44:42;;;;;;;5.70;5.20;;;20.30;61.50;;;;;;5063953;28;20467;-80
2022/04/25 10:47:15;;;;;;;5.40;4.90;;;20.30;59.60;;;;;;5062714;28;21033;-79
2022/04/25 10:50:07;;;;;;;5.27;4.83;;;19.70;59.90;;;;;;5058161;28;20476;-81
2022/04/25 10:52:37;;;;;;;5.00;4.60;;;18.70;61.60;;;;;;5058776;28;20458;-81
2022/04/25 10:55:23;;;;;;;4.63;4.30;;;18.80;63.50;;;;;;5057256;28;21014;-81
2022/04/25 10:58:17;;;;;;;4.83;4.50;;;19.10;62.80;;;;;;5053213;28;20460;-79
2022/04/25 11:00:49;;;;;;;4.90;4.60;;;20.00;60.00;;;;;;5037322;28;20503;-79
2022/04/25 11:03:19;;;;;;;4.90;4.60;;;20.30;57.50;;;;;;5039156;28;20506;-80
2022/04/25 11:05:57;;;;;;;5.50;5.10;;;20.40;57.70;;;;;;5063168;28;20466;-80
2022/04/25 11:08:26;;;;;;;6.00;5.07;;;19.70;58.70;;;;;;5064228;28;20440;-81
2022/04/25 11:11:20;;;;;;;5.70;5.30;;;19.20;59.70;;;;;;5045101;28;20475;-79
2022/04/25 11:13:49;;;;;;;6.20;5.53;;;19.10;61.20;;;;;;5030735;28;20456;-82
2022/04/25 11:16:26;;;;;;;5.70;5.20;;;19.00;63.30;;;;;;5037184;28;20480;-81
2022/04/25 11:19:22;;;;;;;5.27;4.87;;;18.90;62.60;;;;;;5056120;28;20483;-82
2022/04/25 11:21:55;;;;;;;8.20;4.93;;;18.40;62.90;;;;;;5055722;28;20443;-83
2022/04/25 11:24:29;;;;;;;5.10;4.70;;;18.20;61.60;;;;;;5056877;28;20468;-81
2022/04/25 11:26:58;;;;;;;5.50;5.10;;;18.20;63.50;;;;;;5056765;28;20449;-81
2022/04/25 11:29:25;;;;;;;5.30;4.90;;;18.30;63.80;;;;;;5054669;28;20566;-81
2022/04/25 11:32:25;;;;;;;5.43;4.93;;;18.40;64.60;;;;;;5035708;28;20540;-82
2022/04/25 11:34:57;;;;;;;5.57;5.10;;;19.20;63.90;;;;;;5057612;28;20500;-81
2022/04/25 11:37:25;;;;;;;6.23;5.77;;;20.10;61.80;;;;;;5038937;28;20501;-80
2022/04/25 11:39:57;;;;;;;5.23;4.73;;;20.70;57.40;;;;;;5035487;28;20547;-81
2022/04/25 11:42:29;;;;;;;7.90;5.00;;;20.20;58.10;;;;;;5037487;28;20518;-81
2022/04/25 11:44:57;;;;;;;5.80;5.30;;;19.70;58.90;;;;;;5033367;28;21788;-81
2022/04/25 11:47:24;;;;;;;5.50;5.10;;;19.40;58.20;;;;;;5049972;28;20579;-81
2022/04/25 11:50:03;;;;;;;6.30;5.70;;;19.40;59.20;;;;;;5054195;28;20587;-79
2022/04/25 11:52:30;;;;;;;5.00;4.60;;;19.40;59.40;;;;;;5046830;28;20957;-81
2022/04/25 11:54:57;;;;;;;6.30;4.47;;;19.10;59.40;;;;;;5044272;28;21788;-82
2022/04/25 11:57:25;;;;;;;6.00;5.50;;;19.00;59.50;;;;;;5038946;28;20464;-81
2022/04/25 12:00:24;;;;;;;3.77;3.47;;;18.60;59.70;;;;;;5061479;28;20483;-82
2022/04/25 12:02:51;;;;;;;4.90;4.50;;;18.00;58.90;;;;;;5006332;28;20467;-81
2022/04/25 12:05:26;;;;;;;5.33;4.90;;;18.00;59.90;;;;;;5073131;28;20456;-80
2022/04/25 12:16:10;;;;;;;2.77;2.57;;;20.10;56.80;;;;;;5059106;28;20492;-82
2022/04/25 12:18:48;;;;;;;2.73;2.53;;;20.10;54.50;;;;;;5039886;28;20445;-81
2022/04/25 12:21:17;;;;;;;3.80;3.50;;;20.80;53.50;;;;;;5042323;28;20471;-80
2022/04/25 12:23:53;;;;;;;3.07;2.63;;;21.70;52.60;;;;;;5041403;28;20466;-80
2022/04/25 12:26:21;;;;;;;3.10;2.90;;;21.10;51.50;;;;;;5058100;28;20447;-81
2022/04/25 12:29:00;;;;;;;3.23;2.93;;;21.20;52.50;;;;;;5063620;28;20486;-81
2022/04/25 12:31:38;;;;;;;3.00;2.80;;;22.30;50.20;;;;;;5061980;28;20475;-81
2022/04/25 12:34:09;;;;;;;3.43;3.13;;;21.60;50.20;;;;;;5048066;28;20436;-80
2022/04/25 12:36:39;;;;;;;3.87;3.57;;;21.10;52.10;;;;;;5064702;28;20479;-80
2022/04/25 12:39:18;;;;;;;3.57;3.27;;;22.10;52.20;;;;;;4957340;28;20549;-81
2022/04/25 12:49:51;;;;;;;3.80;3.50;;;21.00;51.90;;;;;;5649540;23;20262;-80
2022/04/25 12:52:18;;;;;;;3.80;3.50;;;20.40;52.30;;;;;;4931119;29;20462;-80
2022/04/25 12:54:49;;;;;;;4.10;3.80;;;20.00;52.60;;;;;;4931684;29;20454;-80
2022/04/25 12:57:23;;;;;;;3.63;3.43;;;19.50;53.20;;;;;;4929495;29;20504;-81
2022/04/25 12:59:53;;;;;;;4.30;3.90;;;19.00;53.30;;;;;;4935554;29;20482;-80
2022/04/25 13:02:35;;;;;;;3.60;3.40;;;18.50;53.90;;;;;;4935270;29;20453;-81
2022/04/25 13:05:07;;;;;;;3.60;3.30;;;18.30;54.70;;;;;;4930867;29;20454;-80
2022/04/25 13:07:37;;;;;;;3.73;3.43;;;18.30;54.60;;;;;;4932393;29;20880;-80
2022/04/25 13:10:12;;;;;;;4.00;3.70;;;18.20;55.30;;;;;;4927009;29;20536;-79
2022/04/25 13:12:43;;;;;;;4.53;3.67;;;18.00;54.90;;;;;;4926550;29;20457;-80
2022/04/25 13:15:13;;;;;;;5.77;3.70;;;17.80;56.10;;;;;;4923915;29;20932;-81
2022/04/25 13:17:41;;;;;;;4.70;3.30;;;17.60;56.80;;;;;;4932702;29;20485;-80
2022/04/25 13:20:12;;;;;;;4.13;3.80;;;17.40;57.60;;;;;;4930912;29;20484;-82
2022/04/25 13:22:42;;;;;;;3.47;3.27;;;17.40;58.50;;;;;;4940796;29;20441;-82
2022/04/25 13:25:10;;;;;;;4.37;3.93;;;17.50;58.40;;;;;;4945672;28;20517;-80
2022/04/25 13:27:37;;;;;;;4.50;4.07;;;17.30;57.90;;;;;;4938018;29;20467;-81
2022/04/25 13:30:07;;;;;;;3.73;3.43;;;17.00;58.90;;;;;;4944887;28;20534;-79
2022/04/25 13:32:37;;;;;;;7.53;6.93;;;16.80;59.70;;;;;;4946972;28;20434;-80
2022/04/25 13:35:06;;;;;;;13.10;9.70;;;16.70;65.50;;;;;;4945759;29;20684;-81
2022/04/25 13:37:33;;;;;;;10.83;9.93;;;16.20;72.10;;;;;;4933499;29;20455;-81
2022/04/25 13:40:01;;;;;;;10.73;9.77;;;15.90;74.80;;;;;;4934196;29;20875;-81